createdAt,value
2023-01-19T00:01:03.569Z,1.19
2023-01-19T00:03:31.477Z,1.16
2023-01-19T00:05:59.326Z,1.14
2023-01-19T00:08:27.309Z,1.14
2023-01-19T00:10:55.201Z,1.13
2023-01-19T00:13:23.075Z,1.13
2023-01-19T00:15:50.995Z,1.14
2023-01-19T00:18:18.987Z,1.14
2023-01-19T00:20:47.385Z,1.15
2023-01-19T00:23:16.127Z,1.14
2023-01-19T00:25:44.316Z,1.13
2023-01-19T00:28:14.271Z,1.16
2023-01-19T00:30:42.867Z,1.18
2023-01-19T00:33:15.412Z,1.19
2023-01-19T00:35:43.640Z,1.25
2023-01-19T00:38:12.491Z,1.26
2023-01-19T00:40:40.417Z,1.27
2023-01-19T00:43:08.434Z,1.28
2023-01-19T00:45:36.409Z,1.31
2023-01-19T00:48:04.536Z,1.31
2023-01-19T00:50:32.986Z,1.35
2023-01-19T00:53:01.941Z,1.41
2023-01-19T00:55:32.501Z,1.43
2023-01-19T00:58:00.719Z,1.45
2023-01-19T01:00:28.842Z,1.42
2023-01-19T01:02:56.773Z,1.39
2023-01-19T01:05:25.146Z,1.40
2023-01-19T01:07:53.123Z,1.44
2023-01-19T01:10:25.482Z,1.48
2023-01-19T01:12:57.419Z,1.48
2023-01-19T01:15:29.630Z,1.45
2023-01-19T01:17:57.719Z,1.40
2023-01-19T01:20:28.206Z,1.35
2023-01-19T01:22:57.743Z,1.32
2023-01-19T01:25:28.563Z,1.33
2023-01-19T01:27:57.017Z,1.35
2023-01-19T01:30:24.988Z,1.33
2023-01-19T01:32:52.930Z,1.35
2023-01-19T01:35:20.927Z,1.34
2023-01-19T01:37:48.895Z,1.38
2023-01-19T01:40:18.252Z,1.39
2023-01-19T01:42:46.359Z,1.40
2023-01-19T01:45:40.346Z,1.30
2023-01-19T01:48:28.305Z,1.24
2023-01-19T01:51:21.397Z,1.20
2023-01-19T01:54:03.627Z,1.12
2023-01-19T01:56:36.390Z,0.99
2023-01-19T01:59:29.821Z,0.99
2023-01-19T02:02:29.072Z,0.95
2023-01-19T02:05:08.219Z,0.94
2023-01-19T02:08:07.486Z,0.93
2023-01-19T02:10:54.505Z,0.98
2023-01-19T02:13:25.573Z,1.03
2023-01-19T02:15:56.606Z,1.08
2023-01-19T02:18:28.396Z,1.04
2023-01-19T02:21:27.286Z,0.99
2023-01-19T02:23:57.942Z,0.88
2023-01-19T02:26:39.967Z,0.84
2023-01-19T02:29:14.309Z,0.81
2023-01-19T02:31:42.775Z,0.81
2023-01-19T02:34:15.489Z,0.80
2023-01-19T02:36:43.447Z,0.78
2023-01-19T02:39:12.746Z,0.75
2023-01-19T02:41:46.338Z,0.73
2023-01-19T02:44:15.569Z,0.72
2023-01-19T02:46:43.999Z,0.71
2023-01-19T02:49:11.811Z,0.68
2023-01-19T02:51:43.162Z,0.67
2023-01-19T02:54:35.668Z,0.70
2023-01-19T02:57:12.804Z,0.72
2023-01-19T03:00:09.915Z,0.71
2023-01-19T03:02:56.932Z,0.72
2023-01-19T03:05:52.245Z,0.73
2023-01-19T03:08:30.053Z,0.73
2023-01-19T03:11:05.421Z,0.71
2023-01-19T03:13:54.116Z,0.70
2023-01-19T03:16:25.656Z,0.73
2023-01-19T03:18:58.439Z,0.79
2023-01-19T03:21:29.036Z,0.85
2023-01-19T03:24:02.999Z,0.89
2023-01-19T03:26:34.992Z,0.94
2023-01-19T03:29:07.078Z,0.95
2023-01-19T03:31:37.401Z,1.00
2023-01-19T03:34:08.561Z,1.04
2023-01-19T03:36:44.260Z,1.08
2023-01-19T03:39:17.490Z,1.09
2023-01-19T03:41:48.724Z,1.09
2023-01-19T03:44:17.359Z,1.09
2023-01-19T03:46:47.252Z,1.02
2023-01-19T03:49:15.299Z,0.97
2023-01-19T03:51:43.559Z,0.90
2023-01-19T03:54:11.854Z,0.86
2023-01-19T03:56:39.860Z,0.79
2023-01-19T03:59:08.103Z,0.74
2023-01-19T04:01:36.129Z,0.68
2023-01-19T04:04:04.246Z,0.64
2023-01-19T04:06:32.213Z,0.60
2023-01-19T04:09:00.079Z,0.56
2023-01-19T04:11:28.512Z,0.52
2023-01-19T04:13:56.707Z,0.46
2023-01-19T04:16:24.697Z,0.43
2023-01-19T04:18:52.832Z,0.44
2023-01-19T04:21:20.890Z,0.43
2023-01-19T04:23:49.973Z,0.43
2023-01-19T04:26:18.365Z,0.42
2023-01-19T04:28:46.423Z,0.42
2023-01-19T04:31:14.496Z,0.39
2023-01-19T04:33:42.471Z,0.38
2023-01-19T04:36:10.372Z,0.41
2023-01-19T04:38:38.574Z,0.41
2023-01-19T04:41:06.569Z,0.36
2023-01-19T04:43:35.159Z,0.33
2023-01-19T04:46:03.347Z,0.31
2023-01-19T04:48:31.810Z,0.31
2023-01-19T04:50:59.824Z,0.33
2023-01-19T04:53:27.729Z,0.33
2023-01-19T04:55:55.964Z,0.34
2023-01-19T04:58:23.882Z,0.35
2023-01-19T05:00:53.290Z,0.37
2023-01-19T05:03:21.433Z,0.39
2023-01-19T05:05:49.629Z,0.40
2023-01-19T05:08:17.554Z,0.38
2023-01-19T05:10:45.444Z,0.39
2023-01-19T05:13:14.162Z,0.38
2023-01-19T05:15:42.051Z,0.41
2023-01-19T05:18:10.426Z,0.44
2023-01-19T05:20:39.625Z,0.44
2023-01-19T05:23:07.885Z,0.45
2023-01-19T05:25:35.915Z,0.46
2023-01-19T05:28:04.060Z,0.47
2023-01-19T05:30:32.148Z,0.50
2023-01-19T05:33:00.399Z,0.53
2023-01-19T05:35:35.550Z,0.56
2023-01-19T05:38:04.675Z,0.57
2023-01-19T05:40:32.687Z,0.57
2023-01-19T05:43:04.653Z,0.58
2023-01-19T05:45:33.183Z,0.56
2023-01-19T05:48:01.200Z,0.54
2023-01-19T05:50:29.184Z,0.52
2023-01-19T05:52:58.188Z,0.54
2023-01-19T05:55:27.704Z,0.55
2023-01-19T05:57:55.777Z,0.53
2023-01-19T06:00:24.608Z,0.51
2023-01-19T06:02:52.623Z,0.50
2023-01-19T06:05:20.689Z,0.55
2023-01-19T06:07:48.630Z,0.60
2023-01-19T06:10:16.841Z,0.60
2023-01-19T06:12:44.846Z,0.61
2023-01-19T06:15:14.529Z,0.64
2023-01-19T06:17:43.086Z,0.69
2023-01-19T06:20:11.531Z,0.72
2023-01-19T06:22:39.512Z,0.76
2023-01-19T06:25:07.689Z,0.80
2023-01-19T06:27:36.517Z,0.85
2023-01-19T06:30:04.694Z,0.90
2023-01-19T06:32:32.754Z,0.97
2023-01-19T06:35:00.815Z,1.02
2023-01-19T06:37:30.676Z,1.08
2023-01-19T06:39:58.422Z,1.11
2023-01-19T06:42:26.466Z,1.14
2023-01-19T06:44:54.421Z,1.17
2023-01-19T06:47:22.427Z,1.18
2023-01-19T06:49:50.463Z,1.18
2023-01-19T06:52:20.042Z,1.17
2023-01-19T06:54:48.038Z,1.13
2023-01-19T06:57:17.971Z,1.15
2023-01-19T06:59:45.798Z,1.18
2023-01-19T07:02:26.105Z,1.23
2023-01-19T07:04:56.799Z,1.28
2023-01-19T07:07:25.042Z,1.34
2023-01-19T07:09:54.156Z,1.39
2023-01-19T07:12:23.265Z,1.42
2023-01-19T07:14:51.836Z,1.46
2023-01-19T07:17:19.980Z,1.48
2023-01-19T07:19:47.875Z,1.50
2023-01-19T07:22:15.987Z,1.51
2023-01-19T07:24:43.998Z,1.48
2023-01-19T07:27:12.057Z,1.44
2023-01-19T07:29:39.960Z,1.41
2023-01-19T07:32:08.520Z,1.32
2023-01-19T07:34:37.113Z,1.22
2023-01-19T07:37:05.106Z,1.12
2023-01-19T07:39:33.255Z,1.05
2023-01-19T07:42:01.208Z,1.01
2023-01-19T07:44:30.133Z,0.96
2023-01-19T07:46:58.003Z,0.92
2023-01-19T07:49:26.002Z,0.91
2023-01-19T07:51:56.448Z,0.95
2023-01-19T07:54:24.500Z,0.98
2023-01-19T07:56:55.418Z,0.98
2023-01-19T07:59:23.478Z,0.99
2023-01-19T08:01:52.305Z,0.98
2023-01-19T08:04:20.582Z,1.01
2023-01-19T08:06:48.710Z,1.01
2023-01-19T08:09:16.679Z,1.00
2023-01-19T08:11:44.654Z,0.97
2023-01-19T08:14:12.880Z,0.92
2023-01-19T08:16:41.033Z,0.84
2023-01-19T08:19:09.101Z,0.80
2023-01-19T08:21:39.012Z,0.77
2023-01-19T08:24:07.204Z,0.73
2023-01-19T08:26:35.792Z,0.73
2023-01-19T08:29:05.891Z,0.78
2023-01-19T08:31:33.910Z,0.80
2023-01-19T08:34:02.130Z,0.82
2023-01-19T08:36:30.391Z,0.79
2023-01-19T08:38:58.443Z,0.77
2023-01-19T08:41:26.638Z,0.81
2023-01-19T08:43:54.565Z,0.86
2023-01-19T08:46:22.663Z,0.86
2023-01-19T08:48:50.809Z,0.90
2023-01-19T08:51:19.082Z,0.89
2023-01-19T08:53:47.757Z,0.84
2023-01-19T08:56:16.145Z,0.81
2023-01-19T08:58:46.743Z,0.76
2023-01-19T09:01:18.822Z,0.81
2023-01-19T09:03:47.037Z,0.90
2023-01-19T09:06:19.678Z,0.87
2023-01-19T09:08:47.924Z,0.86
2023-01-19T09:11:17.682Z,0.82
2023-01-19T09:13:45.951Z,0.82
2023-01-19T09:16:16.010Z,0.82
2023-01-19T09:18:46.211Z,0.82
2023-01-19T09:21:15.238Z,0.80
2023-01-19T09:23:43.351Z,0.74
2023-01-19T09:26:11.769Z,0.67
2023-01-19T09:28:39.788Z,0.62
2023-01-19T09:31:08.877Z,0.62
2023-01-19T09:33:37.042Z,0.62
2023-01-19T09:36:05.312Z,0.57
2023-01-19T09:38:34.100Z,0.61
2023-01-19T09:41:02.195Z,0.63
2023-01-19T09:43:45.729Z,0.61
2023-01-19T09:46:41.524Z,0.66
2023-01-19T09:49:30.726Z,0.81
2023-01-19T09:51:58.624Z,0.88
2023-01-19T09:54:36.549Z,0.90
2023-01-19T09:57:11.030Z,0.93
2023-01-19T09:59:39.761Z,0.96
2023-01-19T10:02:26.403Z,1.02
2023-01-19T10:05:06.177Z,1.08
2023-01-19T10:07:40.124Z,1.09
2023-01-19T10:10:08.019Z,1.06
2023-01-19T10:12:51.210Z,1.01
2023-01-19T10:15:46.979Z,0.89
2023-01-19T10:18:31.556Z,0.82
2023-01-19T10:21:06.132Z,0.80
2023-01-19T10:23:57.397Z,0.73
2023-01-19T10:26:28.217Z,0.71
2023-01-19T10:29:02.327Z,0.72
2023-01-19T10:31:33.600Z,0.76
2023-01-19T10:34:01.678Z,0.62
2023-01-19T10:36:36.679Z,0.43
2023-01-19T10:39:06.572Z,0.31
2023-01-19T10:41:43.302Z,0.26
2023-01-19T10:44:12.194Z,0.21
2023-01-19T10:46:45.667Z,0.22
2023-01-19T10:49:37.704Z,0.25
2023-01-19T10:52:08.734Z,0.17
2023-01-19T10:54:37.958Z,0.10
2023-01-19T10:57:10.123Z,0.06
2023-01-19T10:59:50.611Z,0.04
2023-01-19T11:02:22.107Z,0.03
2023-01-19T11:04:53.341Z,-0.02
2023-01-19T11:07:26.895Z,-0.09
2023-01-19T11:10:13.673Z,-0.12
2023-01-19T11:12:53.293Z,-0.19
2023-01-19T11:15:24.195Z,-0.29
2023-01-19T11:17:53.570Z,-0.27
2023-01-19T11:20:25.656Z,-0.21
2023-01-19T11:23:22.261Z,-0.18
2023-01-19T11:25:52.213Z,-0.14
2023-01-19T11:28:28.852Z,-0.10
2023-01-19T11:31:18.037Z,-0.11
2023-01-19T11:33:51.991Z,-0.13
2023-01-19T11:36:27.530Z,-0.11
2023-01-19T11:38:58.076Z,-0.10
2023-01-19T11:41:33.421Z,-0.18
2023-01-19T11:44:26.825Z,-0.27
2023-01-19T11:47:00.980Z,-0.29
2023-01-19T11:49:51.223Z,-0.24
2023-01-19T11:52:50.028Z,-0.14
2023-01-19T11:55:40.908Z,-0.10
2023-01-19T11:58:16.069Z,-0.05
2023-01-19T12:00:54.558Z,0.01
2023-01-19T12:03:31.679Z,0.02
2023-01-19T12:06:22.926Z,0.07
2023-01-19T12:09:03.703Z,0.18
2023-01-19T12:11:36.406Z,0.19
2023-01-19T12:14:06.863Z,0.19
2023-01-19T12:16:38.378Z,0.20
2023-01-19T12:19:21.051Z,0.15
2023-01-19T12:21:52.525Z,0.17
2023-01-19T12:24:47.213Z,0.23
2023-01-19T12:27:32.969Z,0.30
2023-01-19T12:30:01.321Z,0.27
2023-01-19T12:32:35.558Z,0.29
2023-01-19T12:35:03.874Z,0.35
2023-01-19T12:37:33.862Z,0.40
2023-01-19T12:40:22.072Z,0.43
2023-01-19T12:43:06.050Z,0.44
2023-01-19T12:45:36.001Z,0.47
2023-01-19T12:48:05.349Z,0.56
2023-01-19T12:50:38.180Z,0.61
2023-01-19T12:53:19.116Z,0.65
2023-01-19T12:55:59.829Z,0.67
2023-01-19T12:58:28.281Z,0.71
2023-01-19T13:01:15.572Z,0.75
2023-01-19T13:04:09.845Z,0.74
2023-01-19T13:06:49.823Z,0.76
2023-01-19T13:09:35.612Z,0.80
2023-01-19T13:12:24.725Z,0.83
2023-01-19T13:15:34.104Z,0.85
2023-01-19T13:18:03.050Z,0.92
2023-01-19T13:20:47.201Z,0.95
2023-01-19T13:23:22.726Z,0.96
2023-01-19T13:25:53.633Z,0.92
2023-01-19T13:28:31.987Z,0.86
2023-01-19T13:31:02.710Z,0.83
2023-01-19T13:33:41.091Z,0.82
2023-01-19T13:36:23.101Z,0.83
2023-01-19T13:38:52.536Z,0.69
2023-01-19T13:41:25.230Z,0.62
2023-01-19T13:44:00.123Z,0.61
2023-01-19T13:46:29.243Z,0.65
2023-01-19T13:49:01.345Z,0.64
2023-01-19T13:51:29.278Z,0.66
2023-01-19T13:53:58.898Z,0.64
2023-01-19T13:56:29.053Z,0.59
2023-01-19T13:58:58.029Z,0.51
2023-01-19T14:01:29.357Z,0.44
2023-01-19T14:03:58.175Z,0.41
2023-01-19T14:06:39.520Z,0.36
2023-01-19T14:09:18.255Z,0.31
2023-01-19T14:12:03.766Z,0.25
2023-01-19T14:14:32.005Z,0.24
2023-01-19T14:17:00.388Z,0.24
2023-01-19T14:19:28.734Z,0.23
2023-01-19T14:22:02.236Z,0.21
2023-01-19T14:24:33.237Z,0.20
2023-01-19T14:27:30.631Z,0.19
2023-01-19T14:30:20.622Z,0.14
2023-01-19T14:32:48.748Z,0.08
2023-01-19T14:35:24.919Z,0.03
2023-01-19T14:37:52.957Z,-0.03
2023-01-19T14:40:24.644Z,-0.04
2023-01-19T14:43:00.063Z,-0.05
2023-01-19T14:45:34.153Z,-0.09
2023-01-19T14:48:06.256Z,-0.11
2023-01-19T14:50:37.988Z,-0.13
2023-01-19T14:53:29.035Z,-0.18
2023-01-19T14:56:00.677Z,-0.26
2023-01-19T14:58:31.813Z,-0.33
2023-01-19T15:01:00.349Z,-0.39
2023-01-19T15:03:44.632Z,-0.50
2023-01-19T15:06:15.623Z,-0.59
2023-01-19T15:08:45.015Z,-0.69
2023-01-19T15:11:27.018Z,-0.74
2023-01-19T15:13:55.622Z,-0.79
2023-01-19T15:16:24.290Z,-0.84
2023-01-19T15:18:52.590Z,-0.86
2023-01-19T15:21:28.832Z,-0.93
2023-01-19T15:23:58.564Z,-1.02
2023-01-19T15:26:27.362Z,-1.13
2023-01-19T15:28:56.537Z,-1.21
2023-01-19T15:31:26.354Z,-1.26
2023-01-19T15:33:54.488Z,-1.31
2023-01-19T15:36:24.429Z,-1.39
2023-01-19T15:38:52.754Z,-1.43
2023-01-19T15:41:29.994Z,-1.44
2023-01-19T15:43:59.125Z,-1.47
2023-01-19T15:46:27.597Z,-1.50
2023-01-19T15:48:55.411Z,-1.52
2023-01-19T15:51:25.953Z,-1.55
2023-01-19T15:53:55.210Z,-1.62
2023-01-19T15:56:28.945Z,-1.64
2023-01-19T15:58:58.667Z,-1.66
2023-01-19T16:01:32.917Z,-1.75
2023-01-19T16:04:03.312Z,-1.82
2023-01-19T16:06:32.354Z,-1.86
2023-01-19T16:09:01.624Z,-1.95
2023-01-19T16:11:32.809Z,-1.98
2023-01-19T16:14:01.293Z,-1.99
2023-01-19T16:16:29.567Z,-2.03
2023-01-19T16:18:57.889Z,-2.05
2023-01-19T16:21:26.259Z,-2.09
2023-01-19T16:23:54.807Z,-2.13
2023-01-19T16:26:29.805Z,-2.16
2023-01-19T16:29:00.143Z,-2.16
2023-01-19T16:31:28.988Z,-2.11
2023-01-19T16:33:56.955Z,-2.09
2023-01-19T16:36:30.477Z,-2.11
2023-01-19T16:39:00.576Z,-2.20
2023-01-19T16:41:28.763Z,-2.31
2023-01-19T16:43:58.093Z,-2.41
2023-01-19T16:46:29.942Z,-2.46
2023-01-19T16:49:12.089Z,-2.50
2023-01-19T16:51:40.307Z,-2.53
2023-01-19T16:54:12.471Z,-2.57
2023-01-19T16:56:41.590Z,-2.57
2023-01-19T16:59:12.243Z,-2.63
2023-01-19T17:01:40.521Z,-2.60
2023-01-19T17:04:08.521Z,-2.50
2023-01-19T17:06:36.328Z,-2.48
2023-01-19T17:09:04.636Z,-2.48
2023-01-19T17:11:34.917Z,-2.53
2023-01-19T17:14:06.010Z,-2.55
2023-01-19T17:16:35.853Z,-2.55
2023-01-19T17:19:06.787Z,-2.57
2023-01-19T17:21:35.199Z,-2.63
2023-01-19T17:24:03.262Z,-2.66
2023-01-19T17:26:31.349Z,-2.68
2023-01-19T17:29:05.835Z,-2.71
2023-01-19T17:31:34.652Z,-2.73
2023-01-19T17:34:03.981Z,-2.74
2023-01-19T17:36:33.353Z,-2.75
2023-01-19T17:39:05.994Z,-2.77
2023-01-19T17:41:35.204Z,-2.78
2023-01-19T17:44:05.115Z,-2.81
2023-01-19T17:46:36.657Z,-2.83
2023-01-19T17:49:06.869Z,-2.86
2023-01-19T17:51:35.433Z,-2.94
2023-01-19T17:54:04.163Z,-2.96
2023-01-19T17:56:36.779Z,-3.05
2023-01-19T17:59:08.033Z,-3.13
2023-01-19T18:01:40.131Z,-3.15
2023-01-19T18:04:09.066Z,-3.26
2023-01-19T18:06:37.690Z,-3.31
2023-01-19T18:09:07.456Z,-3.42
2023-01-19T18:11:35.741Z,-3.43
2023-01-19T18:14:04.075Z,-3.36
2023-01-19T18:16:32.650Z,-3.33
2023-01-19T18:19:00.640Z,-3.47
2023-01-19T18:21:30.453Z,-3.52
2023-01-19T18:24:02.132Z,-3.54
2023-01-19T18:26:32.383Z,-3.58
2023-01-19T18:29:00.986Z,-3.52
2023-01-19T18:31:29.045Z,-3.66
2023-01-19T18:33:57.075Z,-3.69
2023-01-19T18:36:25.720Z,-3.64
2023-01-19T18:38:53.868Z,-3.71
2023-01-19T18:41:22.043Z,-3.78
2023-01-19T18:43:50.433Z,-3.76
2023-01-19T18:46:18.528Z,-3.81
2023-01-19T18:48:46.588Z,-3.80
2023-01-19T18:51:16.177Z,-3.74
2023-01-19T18:53:45.360Z,-3.63
2023-01-19T18:56:15.695Z,-3.48
2023-01-19T18:58:44.827Z,-3.55
2023-01-19T19:01:35.173Z,-3.55
2023-01-19T19:04:03.441Z,-3.52
2023-01-19T19:06:31.397Z,-3.48
2023-01-19T19:08:59.848Z,-3.38
2023-01-19T19:11:28.338Z,-3.35
2023-01-19T19:14:01.291Z,-3.40
2023-01-19T19:16:32.149Z,-3.42
2023-01-19T19:19:01.570Z,-3.38
2023-01-19T19:21:29.569Z,-3.44
2023-01-19T19:23:58.440Z,-3.51
2023-01-19T19:26:28.444Z,-3.65
2023-01-19T19:28:56.564Z,-3.62
2023-01-19T19:31:26.240Z,-3.65
2023-01-19T19:33:57.975Z,-3.62
2023-01-19T19:36:28.162Z,-3.64
2023-01-19T19:38:56.243Z,-3.59
2023-01-19T19:41:29.154Z,-3.50
2023-01-19T19:43:57.205Z,-3.41
2023-01-19T19:46:26.969Z,-3.52
2023-01-19T19:48:54.931Z,-3.66
2023-01-19T19:51:28.514Z,-3.64
2023-01-19T19:53:58.988Z,-3.67
2023-01-19T19:56:29.448Z,-3.66
2023-01-19T19:58:59.754Z,-3.67
2023-01-19T20:01:32.953Z,-3.69
2023-01-19T20:04:08.748Z,-3.72
2023-01-19T20:06:39.931Z,-3.70
2023-01-19T20:09:10.583Z,-3.72
2023-01-19T20:11:39.147Z,-3.69
2023-01-19T20:14:08.807Z,-3.72
2023-01-19T20:16:37.065Z,-3.77
2023-01-19T20:19:05.552Z,-3.73
2023-01-19T20:21:39.327Z,-3.72
2023-01-19T20:24:12.345Z,-3.69
2023-01-19T20:26:43.302Z,-3.70
2023-01-19T20:29:12.062Z,-3.71
2023-01-19T20:31:47.299Z,-3.74
2023-01-19T20:34:18.048Z,-3.77
2023-01-19T20:36:51.440Z,-3.77
2023-01-19T20:39:21.486Z,-3.78
2023-01-19T20:41:51.428Z,-3.82
2023-01-19T20:44:22.943Z,-3.83
2023-01-19T20:46:52.007Z,-3.88
2023-01-19T20:49:20.323Z,-3.90
2023-01-19T20:51:48.747Z,-3.92
2023-01-19T20:54:19.293Z,-3.97
2023-01-19T20:56:47.405Z,-4.04
2023-01-19T20:59:15.264Z,-4.11
2023-01-19T21:01:43.871Z,-4.15
2023-01-19T21:04:12.956Z,-4.13
2023-01-19T21:06:41.740Z,-4.09
2023-01-19T21:09:10.925Z,-4.07
2023-01-19T21:11:39.764Z,-4.07
2023-01-19T21:14:07.881Z,-4.12
2023-01-19T21:16:36.809Z,-4.20
2023-01-19T21:19:04.962Z,-4.22
2023-01-19T21:21:32.972Z,-4.21
2023-01-19T21:24:03.059Z,-4.20
2023-01-19T21:26:33.441Z,-4.18
2023-01-19T21:29:02.953Z,-4.18
2023-01-19T21:31:31.170Z,-4.16
2023-01-19T21:34:03.978Z,-4.15
2023-01-19T21:36:32.536Z,-4.13
2023-01-19T21:39:01.013Z,-4.15
2023-01-19T21:41:34.854Z,-4.13
2023-01-19T21:44:03.153Z,-4.14
2023-01-19T21:46:33.179Z,-4.21
2023-01-19T21:49:04.272Z,-4.23
2023-01-19T21:51:34.857Z,-4.24
2023-01-19T21:54:05.596Z,-4.23
2023-01-19T21:56:34.888Z,-4.23
2023-01-19T21:59:03.451Z,-4.22
2023-01-19T22:01:33.450Z,-4.20
2023-01-19T22:04:01.426Z,-4.17
2023-01-19T22:06:29.474Z,-4.15
2023-01-19T22:08:58.511Z,-4.14
2023-01-19T22:11:27.519Z,-4.14
2023-01-19T22:13:55.335Z,-4.13
2023-01-19T22:16:23.992Z,-4.12
2023-01-19T22:18:56.310Z,-4.16
2023-01-19T22:21:26.412Z,-4.18
2023-01-19T22:23:56.791Z,-4.18
2023-01-19T22:26:26.515Z,-4.19
2023-01-19T22:28:56.344Z,-4.19
2023-01-19T22:31:25.699Z,-4.18
2023-01-19T22:33:54.245Z,-4.15
2023-01-19T22:36:35.473Z,-4.11
2023-01-19T22:39:06.719Z,-4.09
2023-01-19T22:41:40.934Z,-4.07
2023-01-19T22:44:13.713Z,-4.06
2023-01-19T22:46:42.279Z,-4.02
2023-01-19T22:49:13.813Z,-3.98
2023-01-19T22:51:42.563Z,-3.99
2023-01-19T22:54:11.713Z,-4.01
2023-01-19T22:56:41.148Z,-4.04
2023-01-19T22:59:09.858Z,-4.10
2023-01-19T23:01:40.728Z,-4.13
2023-01-19T23:04:12.714Z,-4.13
2023-01-19T23:06:41.228Z,-4.09
2023-01-19T23:09:14.384Z,-4.06
2023-01-19T23:11:44.726Z,-4.03
2023-01-19T23:14:15.658Z,-4.04
2023-01-19T23:16:43.644Z,-4.05
2023-01-19T23:19:12.946Z,-4.03
2023-01-19T23:21:41.543Z,-4.04
2023-01-19T23:24:10.302Z,-4.15
2023-01-19T23:26:38.585Z,-4.19
2023-01-19T23:29:12.252Z,-4.22
2023-01-19T23:31:44.192Z,-4.25
2023-01-19T23:34:12.779Z,-4.25
2023-01-19T23:36:42.588Z,-4.23
2023-01-19T23:39:16.433Z,-4.22
2023-01-19T23:41:45.009Z,-4.24
2023-01-19T23:44:13.629Z,-4.28
2023-01-19T23:46:41.623Z,-4.30
2023-01-19T23:49:09.675Z,-4.34
2023-01-19T23:51:39.143Z,-4.39
2023-01-19T23:54:07.379Z,-4.44
2023-01-19T23:56:37.539Z,-4.47
2023-01-19T23:59:08.199Z,-4.48
